Time;durP1;ratioP1;P1;durP2;ratioP2;P2;SDS_P1;SDS_P2;PMS_P1;PMS_P2;Temp;Humidity;BMP_temperature;BMP_pressure;BME280_temperature;BME280_humidity;BME280_pressure;Samples;Min_cycle;Max_cycle;Signal;HPM_P1;HPM_P2
2021/09/30 00:01:57;;;;;;;;;0.50;0.00;;;;;;;;5076799;27;45247;-72
2021/09/30 00:04:22;;;;;;;;;0.75;0.75;;;;;;;;5082690;27;45265;-72
2021/09/30 00:06:47;;;;;;;;;0.75;0.75;;;;;;;;5080475;27;45965;-72
2021/09/30 00:09:14;;;;;;;;;1.25;1.00;;;;;;;;5080494;27;45370;-72
2021/09/30 00:11:43;;;;;;;;;1.00;1.00;;;;;;;;5080279;27;45505;-72
2021/09/30 00:14:17;;;;;;;;;1.00;0.00;;;;;;;;5076786;27;45339;-73
2021/09/30 00:46:20;;;;;;;;;7.25;5.00;;;;;;;;5018419;28;45590;-71
2021/09/30 00:49:11;;;;;;;;;4.00;4.00;;;;;;;;5017734;28;47557;-72
2021/09/30 01:20:21;;;;;;;;;1.00;1.00;;;;;;;;4958925;28;45569;-71
2021/09/30 01:34:21;;;;;;;;;4.00;1.00;;;;;;;;4986711;28;46216;-70
2021/09/30 02:20:40;;;;;;;;;0.75;0.75;;;;;;;;4991366;28;45567;-72
2021/09/30 02:58:15;;;;;;;;;1.50;0.75;;;;;;;;5036774;28;45361;-71
2021/09/30 03:00:42;;;;;;;;;0.00;0.00;;;;;;;;5036299;28;46365;-72
2021/09/30 03:03:08;;;;;;;;;0.25;0.00;;;;;;;;5018312;28;45462;-72
2021/09/30 03:05:34;;;;;;;;;1.00;1.00;;;;;;;;5036164;28;45489;-72
2021/09/30 03:07:59;;;;;;;;;2.75;0.00;;;;;;;;5031996;28;45652;-72
2021/09/30 03:10:25;;;;;;;;;3.00;2.00;;;;;;;;5039189;28;45481;-70
2021/09/30 03:12:51;;;;;;;;;0.75;0.00;;;;;;;;5039507;28;45506;-70
2021/09/30 03:18:00;;;;;;;;;2.75;1.00;;;;;;;;5080781;27;45435;-71
2021/09/30 03:20:41;;;;;;;;;1.00;1.00;;;;;;;;5079235;27;46129;-71
2021/09/30 03:23:11;;;;;;;;;1.00;1.00;;;;;;;;5061286;27;45414;-71
2021/09/30 03:25:37;;;;;;;;;1.50;1.00;;;;;;;;5080733;27;45367;-71
2021/09/30 03:28:03;;;;;;;;;3.50;2.00;;;;;;;;5081506;27;45381;-72
2021/09/30 03:30:29;;;;;;;;;2.50;2.50;;;;;;;;5080391;27;47541;-71
2021/09/30 03:32:55;;;;;;;;;0.50;0.50;;;;;;;;5080945;27;45450;-72
2021/09/30 03:35:22;;;;;;;;;1.00;1.00;;;;;;;;5078676;27;45473;-71
2021/09/30 03:37:47;;;;;;;;;2.25;1.00;;;;;;;;5077696;27;45380;-73
2021/09/30 03:40:13;;;;;;;;;1.00;0.50;;;;;;;;5082363;27;46172;-72
2021/09/30 03:42:38;;;;;;;;;3.25;2.00;;;;;;;;5080503;27;45465;-71
2021/09/30 03:45:04;;;;;;;;;1.00;1.00;;;;;;;;5080470;27;45292;-70
2021/09/30 03:47:29;;;;;;;;;0.25;0.25;;;;;;;;5078282;27;45570;-71
2021/09/30 03:49:54;;;;;;;;;4.25;2.00;;;;;;;;5075769;27;47196;-71
2021/09/30 03:55:06;;;;;;;;;3.50;2.50;;;;;;;;5080684;27;45520;-71
2021/09/30 04:00:16;;;;;;;;;3.00;3.00;;;;;;;;5079724;27;45355;-71
2021/09/30 04:02:42;;;;;;;;;1.75;1.75;;;;;;;;5079475;27;45276;-72
2021/09/30 04:05:07;;;;;;;;;1.00;1.00;;;;;;;;5076235;27;49047;-71
2021/09/30 04:07:32;;;;;;;;;1.00;1.00;;;;;;;;5081575;27;45469;-71
2021/09/30 04:09:58;;;;;;;;;2.00;1.00;;;;;;;;5079997;27;47110;-71
2021/09/30 04:12:23;;;;;;;;;1.50;1.00;;;;;;;;5080057;27;45695;-71
2021/09/30 04:14:48;;;;;;;;;3.75;2.00;;;;;;;;5079917;27;45491;-71
2021/09/30 04:17:13;;;;;;;;;2.00;2.00;;;;;;;;5076264;27;45444;-70
2021/09/30 04:19:39;;;;;;;;;4.75;4.50;;;;;;;;5079235;27;46233;-70
2021/09/30 04:22:04;;;;;;;;;5.50;5.50;;;;;;;;5080209;27;45934;-72
2021/09/30 04:24:29;;;;;;;;;3.00;3.00;;;;;;;;5079646;27;45426;-72
2021/09/30 04:26:57;;;;;;;;;2.50;0.50;;;;;;;;5060196;27;45418;-72
2021/09/30 04:29:23;;;;;;;;;4.50;4.50;;;;;;;;5076048;27;45410;-72
2021/09/30 04:31:48;;;;;;;;;4.50;4.50;;;;;;;;5057896;28;45574;-72
2021/09/30 04:34:14;;;;;;;;;6.25;3.50;;;;;;;;5081475;27;45339;-72
2021/09/30 04:36:39;;;;;;;;;2.50;1.00;;;;;;;;5079358;27;45438;-71
2021/09/30 04:39:05;;;;;;;;;0.50;0.50;;;;;;;;5078983;27;45403;-73
2021/09/30 04:41:30;;;;;;;;;3.00;2.75;;;;;;;;5078491;27;45415;-70
2021/09/30 04:43:55;;;;;;;;;1.00;1.00;;;;;;;;5075426;27;45347;-71
2021/09/30 04:46:21;;;;;;;;;4.50;2.00;;;;;;;;5080831;27;45460;-72
2021/09/30 04:48:47;;;;;;;;;1.00;1.00;;;;;;;;5078884;27;46024;-71
2021/09/30 04:51:13;;;;;;;;;1.25;0.50;;;;;;;;5079022;27;45357;-71
2021/09/30 04:53:39;;;;;;;;;2.00;1.00;;;;;;;;5078817;27;45466;-71
2021/09/30 04:56:05;;;;;;;;;0.00;0.00;;;;;;;;5074316;27;45463;-72
2021/09/30 04:58:30;;;;;;;;;1.00;1.00;;;;;;;;5080409;27;45249;-70
2021/09/30 05:00:55;;;;;;;;;6.25;3.00;;;;;;;;5078459;27;45429;-70
2021/09/30 05:03:21;;;;;;;;;2.00;2.00;;;;;;;;5079077;27;45645;-73
2021/09/30 05:05:46;;;;;;;;;4.75;1.50;;;;;;;;5059229;27;45434;-72
2021/09/30 05:08:11;;;;;;;;;1.50;1.00;;;;;;;;5074259;27;47175;-72
2021/09/30 05:10:38;;;;;;;;;26.25;20.50;;;;;;;;5078773;27;45343;-72
2021/09/30 05:13:09;;;;;;;;;3.00;3.00;;;;;;;;5079245;27;45487;-71
2021/09/30 05:15:36;;;;;;;;;4.25;3.00;;;;;;;;5078034;27;45389;-72
2021/09/30 05:18:02;;;;;;;;;3.00;3.00;;;;;;;;5078377;27;46055;-72
2021/09/30 05:20:27;;;;;;;;;4.00;2.00;;;;;;;;5076652;27;45518;-73
2021/09/30 05:22:52;;;;;;;;;3.50;1.50;;;;;;;;5075458;27;45666;-72
2021/09/30 05:25:17;;;;;;;;;5.00;3.00;;;;;;;;5081661;27;45276;-71
2021/09/30 05:27:43;;;;;;;;;11.25;8.75;;;;;;;;5078024;27;46364;-71
2021/09/30 05:30:08;;;;;;;;;4.00;3.50;;;;;;;;5078157;27;45440;-72
2021/09/30 05:32:33;;;;;;;;;5.75;4.75;;;;;;;;5077106;27;45319;-73
2021/09/30 05:34:58;;;;;;;;;5.00;4.00;;;;;;;;5073911;27;45526;-73
2021/09/30 05:37:24;;;;;;;;;3.75;2.75;;;;;;;;5061787;28;47476;-72
2021/09/30 05:39:49;;;;;;;;;3.00;3.00;;;;;;;;5078286;27;45606;-71
2021/09/30 05:42:15;;;;;;;;;4.75;2.50;;;;;;;;5077534;27;45509;-72
2021/09/30 05:44:40;;;;;;;;;10.00;9.75;;;;;;;;5076139;27;45450;-71
2021/09/30 05:47:06;;;;;;;;;8.25;7.75;;;;;;;;5070651;27;46422;-72
2021/09/30 05:49:31;;;;;;;;;2.25;2.25;;;;;;;;5075102;27;45238;-72
2021/09/30 05:51:56;;;;;;;;;3.50;3.00;;;;;;;;5073596;27;45591;-73
2021/09/30 05:54:21;;;;;;;;;2.75;2.75;;;;;;;;5074356;27;45404;-73
2021/09/30 05:56:46;;;;;;;;;3.00;2.75;;;;;;;;5073231;27;46283;-71
2021/09/30 05:59:16;;;;;;;;;6.00;6.00;;;;;;;;5072905;27;45286;-73
2021/09/30 06:14:45;;;;;;;;;7.00;4.25;;;;;;;;4995206;28;45466;-72
2021/09/30 06:17:10;;;;;;;;;3.25;3.25;;;;;;;;5005284;28;45545;-72
2021/09/30 06:19:36;;;;;;;;;4.00;3.00;;;;;;;;4993956;28;45294;-72
2021/09/30 06:22:04;;;;;;;;;3.00;3.00;;;;;;;;5001546;28;45779;-75
2021/09/30 06:24:30;;;;;;;;;3.00;2.00;;;;;;;;4994720;28;45493;-73
2021/09/30 06:26:55;;;;;;;;;2.00;2.00;;;;;;;;4994417;28;46859;-75
2021/09/30 06:29:20;;;;;;;;;2.00;2.00;;;;;;;;4992099;28;45522;-72
2021/09/30 06:31:46;;;;;;;;;2.75;2.75;;;;;;;;4993246;28;45416;-73
2021/09/30 06:34:11;;;;;;;;;2.50;2.00;;;;;;;;4995272;28;45588;-72
2021/09/30 06:36:36;;;;;;;;;5.00;2.50;;;;;;;;4994857;28;46542;-74
2021/09/30 06:39:02;;;;;;;;;5.00;3.75;;;;;;;;4994836;28;45333;-74
2021/09/30 06:41:28;;;;;;;;;1.75;1.75;;;;;;;;5030392;27;45572;-73
2021/09/30 06:43:54;;;;;;;;;2.75;2.75;;;;;;;;5054064;28;45371;-74
2021/09/30 06:46:19;;;;;;;;;3.00;3.00;;;;;;;;5077928;27;47118;-73
2021/09/30 06:48:44;;;;;;;;;3.75;3.25;;;;;;;;5075334;27;45392;-74
2021/09/30 06:51:09;;;;;;;;;5.25;3.00;;;;;;;;5075900;27;45502;-73
2021/09/30 06:53:35;;;;;;;;;3.00;3.00;;;;;;;;5075949;27;45560;-72
2021/09/30 06:56:04;;;;;;;;;5.00;3.00;;;;;;;;5071516;27;47445;-74
2021/09/30 06:58:29;;;;;;;;;3.25;3.25;;;;;;;;5085208;27;45370;-74
2021/09/30 07:00:58;;;;;;;;;1.25;1.00;;;;;;;;5076631;27;45419;-74
2021/09/30 07:03:27;;;;;;;;;2.00;2.00;;;;;;;;5074777;27;45504;-72
2021/09/30 07:05:52;;;;;;;;;2.00;1.75;;;;;;;;5073919;27;45406;-73
2021/09/30 07:08:17;;;;;;;;;6.25;4.00;;;;;;;;5073538;27;45444;-73
2021/09/30 07:10:43;;;;;;;;;4.00;2.25;;;;;;;;5074820;27;45344;-73
2021/09/30 07:13:08;;;;;;;;;4.75;3.00;;;;;;;;5077530;27;45405;-73
2021/09/30 07:15:33;;;;;;;;;5.75;4.75;;;;;;;;5057104;27;47297;-73
2021/09/30 07:17:59;;;;;;;;;6.00;2.50;;;;;;;;5076103;27;45425;-73
2021/09/30 07:20:24;;;;;;;;;5.25;5.25;;;;;;;;5074909;27;45419;-73
2021/09/30 07:22:49;;;;;;;;;6.50;4.00;;;;;;;;5055260;28;45340;-72
2021/09/30 07:25:14;;;;;;;;;4.00;4.00;;;;;;;;5078083;27;46008;-72
2021/09/30 07:27:39;;;;;;;;;3.50;2.00;;;;;;;;5076279;27;45437;-73
2021/09/30 07:30:05;;;;;;;;;3.00;3.00;;;;;;;;5076765;27;45461;-73
2021/09/30 07:32:30;;;;;;;;;8.00;6.00;;;;;;;;5076423;27;45461;-73
2021/09/30 07:34:56;;;;;;;;;6.00;6.00;;;;;;;;5073162;27;45958;-74
2021/09/30 07:37:21;;;;;;;;;9.00;6.50;;;;;;;;5060158;27;45353;-72
2021/09/30 07:39:46;;;;;;;;;8.00;8.00;;;;;;;;5075711;27;45516;-72
2021/09/30 07:42:11;;;;;;;;;5.50;5.25;;;;;;;;5074750;27;45242;-72
2021/09/30 07:44:37;;;;;;;;;5.25;5.25;;;;;;;;5073934;27;46475;-71
2021/09/30 07:47:03;;;;;;;;;13.50;7.00;;;;;;;;5071971;28;45493;-73
2021/09/30 07:49:28;;;;;;;;;8.75;7.00;;;;;;;;5078085;27;45297;-73
2021/09/30 07:51:53;;;;;;;;;6.75;5.25;;;;;;;;5075883;27;45749;-72
2021/09/30 07:54:19;;;;;;;;;7.50;6.25;;;;;;;;5075394;27;46812;-72
2021/09/30 07:56:44;;;;;;;;;4.50;4.50;;;;;;;;5078792;27;45828;-73
2021/09/30 07:59:09;;;;;;;;;6.50;6.50;;;;;;;;5075190;27;45288;-72
2021/09/30 08:01:35;;;;;;;;;9.00;7.00;;;;;;;;5079892;27;45410;-74
2021/09/30 08:04:01;;;;;;;;;6.25;5.50;;;;;;;;5079088;27;46151;-73
2021/09/30 08:06:27;;;;;;;;;4.25;4.00;;;;;;;;5078740;27;45528;-73
2021/09/30 08:08:53;;;;;;;;;7.75;5.50;;;;;;;;5077538;27;45421;-73
2021/09/30 08:11:18;;;;;;;;;4.25;4.25;;;;;;;;5076060;27;45521;-72
2021/09/30 08:13:43;;;;;;;;;10.25;8.00;;;;;;;;5076947;27;45546;-72
2021/09/30 08:16:09;;;;;;;;;7.00;6.00;;;;;;;;5079788;27;45426;-73
2021/09/30 08:18:34;;;;;;;;;8.25;6.50;;;;;;;;5078332;27;45494;-74
2021/09/30 08:21:00;;;;;;;;;11.50;9.00;;;;;;;;5076870;27;45477;-74
2021/09/30 08:23:26;;;;;;;;;6.75;6.75;;;;;;;;5056757;27;46412;-73
2021/09/30 08:25:51;;;;;;;;;7.00;3.00;;;;;;;;5076378;27;45457;-73
2021/09/30 08:28:17;;;;;;;;;6.25;4.75;;;;;;;;5081163;27;45355;-72
2021/09/30 08:30:43;;;;;;;;;7.00;6.00;;;;;;;;5078728;27;45452;-73
2021/09/30 08:33:08;;;;;;;;;5.75;3.75;;;;;;;;5078137;27;46022;-73
2021/09/30 08:35:34;;;;;;;;;4.50;1.50;;;;;;;;5078366;27;45337;-73
2021/09/30 08:37:59;;;;;;;;;1.00;1.00;;;;;;;;5074699;27;45277;-73
2021/09/30 08:40:25;;;;;;;;;3.25;1.00;;;;;;;;5080797;27;45208;-73
2021/09/30 08:42:50;;;;;;;;;2.50;2.50;;;;;;;;5078926;27;45862;-74
2021/09/30 08:45:20;;;;;;;;;1.50;1.50;;;;;;;;5078017;27;45287;-73
2021/09/30 08:47:45;;;;;;;;;1.00;1.00;;;;;;;;5078223;27;45529;-72
2021/09/30 08:50:11;;;;;;;;;5.25;3.25;;;;;;;;5074682;27;45446;-73
2021/09/30 08:52:39;;;;;;;;;3.00;1.50;;;;;;;;5078671;27;46069;-72
2021/09/30 08:55:04;;;;;;;;;18.50;13.75;;;;;;;;5077875;27;45330;-74
2021/09/30 08:57:31;;;;;;;;;6.00;4.00;;;;;;;;5078467;27;45578;-73
2021/09/30 09:00:06;;;;;;;;;7.25;4.75;;;;;;;;5076004;27;45612;-73
2021/09/30 09:02:37;;;;;;;;;1.25;1.00;;;;;;;;5075942;27;45468;-73
2021/09/30 09:05:02;;;;;;;;;1.00;0.00;;;;;;;;5057515;28;45502;-71
2021/09/30 09:07:29;;;;;;;;;1.50;1.00;;;;;;;;5079656;27;45708;-73
2021/09/30 09:09:55;;;;;;;;;2.50;0.75;;;;;;;;5077785;27;45357;-74
2021/09/30 09:12:20;;;;;;;;;0.25;0.25;;;;;;;;5077722;27;47850;-73
2021/09/30 09:14:46;;;;;;;;;4.75;1.00;;;;;;;;5076286;27;45367;-72
2021/09/30 09:17:14;;;;;;;;;2.00;0.00;;;;;;;;5074294;27;45428;-73
2021/09/30 09:19:40;;;;;;;;;1.00;1.00;;;;;;;;5077698;27;45525;-73
2021/09/30 09:22:26;;;;;;;;;0.00;0.00;;;;;;;;5078381;27;46630;-74
2021/09/30 09:25:06;;;;;;;;;1.00;1.00;;;;;;;;5058600;28;45557;-75
2021/09/30 09:27:46;;;;;;;;;2.25;0.00;;;;;;;;5059819;28;45324;-73
2021/09/30 09:30:32;;;;;;;;;1.50;1.00;;;;;;;;5077886;27;45852;-73
2021/09/30 09:33:06;;;;;;;;;1.75;0.75;;;;;;;;5077708;27;46680;-72
2021/09/30 09:35:53;;;;;;;;;4.00;1.75;;;;;;;;5077334;27;45276;-72
2021/09/30 09:38:19;;;;;;;;;3.50;1.50;;;;;;;;5060139;27;45248;-74
2021/09/30 09:40:44;;;;;;;;;3.25;0.75;;;;;;;;5077085;27;45371;-74
2021/09/30 09:43:24;;;;;;;;;1.00;1.00;;;;;;;;5077236;27;46118;-73
2021/09/30 09:45:49;;;;;;;;;1.50;0.50;;;;;;;;5077194;27;45437;-74
2021/09/30 09:48:15;;;;;;;;;0.00;0.00;;;;;;;;5077427;27;45472;-72
2021/09/30 09:50:40;;;;;;;;;0.50;0.50;;;;;;;;5077031;27;45457;-73
2021/09/30 09:53:06;;;;;;;;;1.75;1.75;;;;;;;;5073620;27;47188;-72
2021/09/30 09:55:32;;;;;;;;;5.50;2.00;;;;;;;;5079485;27;45585;-72
2021/09/30 09:58:02;;;;;;;;;1.50;0.50;;;;;;;;5077507;27;45288;-74
2021/09/30 10:00:28;;;;;;;;;0.00;0.00;;;;;;;;5077084;27;45385;-74
2021/09/30 10:02:53;;;;;;;;;0.25;0.25;;;;;;;;5076876;27;45376;-74
2021/09/30 10:05:19;;;;;;;;;0.00;0.00;;;;;;;;5074800;27;45496;-73
2021/09/30 10:07:46;;;;;;;;;2.00;0.00;;;;;;;;5075638;27;45335;-73
2021/09/30 10:10:11;;;;;;;;;0.75;0.75;;;;;;;;5078498;27;45436;-74
2021/09/30 10:12:37;;;;;;;;;0.00;0.00;;;;;;;;5075785;27;46892;-74
2021/09/30 10:15:02;;;;;;;;;1.00;1.00;;;;;;;;5077396;27;45284;-72
2021/09/30 10:17:27;;;;;;;;;0.00;0.00;;;;;;;;5074528;27;45450;-73
2021/09/30 10:19:53;;;;;;;;;3.00;0.00;;;;;;;;5054750;28;45606;-73
2021/09/30 10:22:18;;;;;;;;;0.00;0.00;;;;;;;;5077408;27;46252;-73
2021/09/30 10:24:44;;;;;;;;;0.75;0.75;;;;;;;;5077211;27;45311;-73
2021/09/30 10:27:11;;;;;;;;;1.00;0.75;;;;;;;;5058666;28;45416;-72
2021/09/30 10:29:36;;;;;;;;;1.00;1.00;;;;;;;;5076818;27;45551;-74
2021/09/30 10:32:02;;;;;;;;;0.33;0.33;;;;;;;;5071929;27;45980;-72
2021/09/30 10:34:32;;;;;;;;;1.00;0.00;;;;;;;;5078311;27;45462;-74
2021/09/30 10:37:17;;;;;;;;;1.33;0.00;;;;;;;;5076561;27;45435;-73
2021/09/30 10:39:48;;;;;;;;;2.00;1.00;;;;;;;;5076131;27;45304;-73
2021/09/30 10:42:58;;;;;;;;;2.25;1.75;;;;;;;;5076487;27;47035;-74
2021/09/30 10:45:23;;;;;;;;;3.00;1.33;;;;;;;;4995192;28;45357;-73
2021/09/30 10:47:48;;;;;;;;;0.00;0.00;;;;;;;;4995251;28;45290;-73
2021/09/30 10:50:14;;;;;;;;;1.33;0.00;;;;;;;;4992823;28;45407;-74
2021/09/30 10:52:53;;;;;;;;;1.67;0.00;;;;;;;;4993668;28;46636;-74
2021/09/30 10:55:21;;;;;;;;;0.00;0.00;;;;;;;;4994642;28;45563;-73
2021/09/30 10:57:53;;;;;;;;;1.00;1.00;;;;;;;;4995523;28;45425;-73
2021/09/30 11:00:18;;;;;;;;;2.00;0.00;;;;;;;;4995538;28;45612;-74
2021/09/30 11:03:12;;;;;;;;;0.67;0.67;;;;;;;;4994898;28;46091;-74
2021/09/30 11:05:40;;;;;;;;;1.00;1.00;;;;;;;;4995110;28;45401;-75
2021/09/30 11:08:18;;;;;;;;;0.33;0.33;;;;;;;;4990938;28;45453;-74
2021/09/30 11:11:05;;;;;;;;;3.00;2.00;;;;;;;;4992709;28;45441;-74
2021/09/30 11:13:33;;;;;;;;;0.50;0.50;;;;;;;;5006624;28;45635;-74
2021/09/30 11:15:59;;;;;;;;;0.00;0.00;;;;;;;;4994955;28;45454;-76
2021/09/30 11:18:43;;;;;;;;;2.00;1.00;;;;;;;;5006510;27;45319;-75
2021/09/30 11:21:38;;;;;;;;;1.67;1.67;;;;;;;;5075616;27;45541;-74
2021/09/30 11:24:04;;;;;;;;;2.00;0.00;;;;;;;;5057701;27;46266;-73
2021/09/30 11:26:34;;;;;;;;;3.00;1.33;;;;;;;;5075069;27;45411;-74
2021/09/30 11:29:17;;;;;;;;;0.00;0.00;;;;;;;;5071926;27;45347;-74
2021/09/30 11:31:43;;;;;;;;;2.00;1.00;;;;;;;;5088808;27;45392;-74
2021/09/30 11:34:16;;;;;;;;;1.00;1.00;;;;;;;;5079800;27;45230;-74
2021/09/30 11:36:42;;;;;;;;;3.67;0.00;;;;;;;;5077561;27;45459;-75
2021/09/30 11:39:08;;;;;;;;;0.67;0.67;;;;;;;;5077150;27;45228;-75
2021/09/30 11:41:34;;;;;;;;;0.00;0.00;;;;;;;;5078854;27;45474;-74
2021/09/30 11:44:00;;;;;;;;;0.00;0.00;;;;;;;;5074861;27;45584;-74
2021/09/30 11:46:51;;;;;;;;;0.00;0.00;;;;;;;;5080426;27;45421;-75
2021/09/30 11:49:17;;;;;;;;;0.67;0.00;;;;;;;;5075778;27;45469;-74
2021/09/30 11:51:44;;;;;;;;;3.33;1.00;;;;;;;;5083685;27;45527;-72
2021/09/30 11:54:11;;;;;;;;;2.00;1.00;;;;;;;;5084972;27;46407;-74
2021/09/30 11:56:37;;;;;;;;;1.00;1.00;;;;;;;;5074847;27;45313;-73
2021/09/30 11:59:07;;;;;;;;;2.33;2.33;;;;;;;;5074713;27;45391;-74
2021/09/30 12:01:33;;;;;;;;;1.00;1.00;;;;;;;;5088822;27;45299;-74
2021/09/30 12:03:58;;;;;;;;;0.33;0.00;;;;;;;;5079096;27;46213;-73
2021/09/30 12:06:44;;;;;;;;;3.33;1.00;;;;;;;;5082490;27;45393;-74
2021/09/30 12:09:10;;;;;;;;;2.00;2.00;;;;;;;;5077636;27;49766;-72
2021/09/30 12:11:36;;;;;;;;;4.67;3.00;;;;;;;;5078704;27;45420;-73
2021/09/30 12:14:02;;;;;;;;;0.00;0.00;;;;;;;;5073937;27;45364;-74
2021/09/30 12:16:27;;;;;;;;;1.00;0.33;;;;;;;;5080051;27;45340;-72
2021/09/30 12:19:03;;;;;;;;;0.00;0.00;;;;;;;;5077641;27;45570;-74
2021/09/30 12:21:35;;;;;;;;;1.00;1.00;;;;;;;;5078671;27;45455;-72
2021/09/30 12:24:00;;;;;;;;;0.67;0.00;;;;;;;;5078994;27;46958;-77
2021/09/30 12:26:26;;;;;;;;;1.00;1.00;;;;;;;;5077330;27;45367;-73
2021/09/30 12:28:51;;;;;;;;;0.33;0.00;;;;;;;;5075972;27;45508;-73
2021/09/30 12:31:17;;;;;;;;;1.67;1.00;;;;;;;;5080507;27;45302;-73
2021/09/30 12:33:42;;;;;;;;;4.00;3.00;;;;;;;;5078317;27;46120;-73
2021/09/30 12:36:07;;;;;;;;;1.00;1.00;;;;;;;;5078684;27;45463;-73
2021/09/30 12:38:33;;;;;;;;;3.33;1.33;;;;;;;;5078168;27;45336;-73
2021/09/30 12:41:05;;;;;;;;;1.00;0.00;;;;;;;;5074488;27;45697;-72
2021/09/30 12:43:31;;;;;;;;;2.00;2.00;;;;;;;;5080008;27;46473;-74
2021/09/30 12:45:56;;;;;;;;;1.00;1.00;;;;;;;;5077244;27;45591;-74
2021/09/30 12:48:22;;;;;;;;;0.00;0.00;;;;;;;;5077875;27;45287;-73
2021/09/30 12:50:49;;;;;;;;;1.00;1.00;;;;;;;;5077944;27;45378;-74
2021/09/30 12:53:16;;;;;;;;;1.67;0.00;;;;;;;;5073245;27;46378;-74
2021/09/30 12:55:42;;;;;;;;;0.00;0.00;;;;;;;;5077492;27;45404;-72
2021/09/30 12:58:26;;;;;;;;;0.00;0.00;;;;;;;;5078012;27;45281;-73
2021/09/30 13:00:51;;;;;;;;;0.00;0.00;;;;;;;;5077956;27;45393;-72
2021/09/30 13:03:16;;;;;;;;;0.67;0.00;;;;;;;;5075589;27;46962;-72
2021/09/30 13:05:46;;;;;;;;;1.33;0.00;;;;;;;;5078672;27;45408;-73
2021/09/30 13:08:11;;;;;;;;;0.67;0.33;;;;;;;;5074952;27;45777;-75
2021/09/30 13:10:36;;;;;;;;;0.00;0.00;;;;;;;;5078905;27;45300;-76
2021/09/30 13:13:06;;;;;;;;;0.00;0.00;;;;;;;;5078719;27;45354;-73
2021/09/30 13:15:32;;;;;;;;;0.00;0.00;;;;;;;;5078122;27;45536;-74
2021/09/30 13:18:01;;;;;;;;;0.00;0.00;;;;;;;;5070866;27;45379;-75
2021/09/30 13:20:26;;;;;;;;;0.00;0.00;;;;;;;;5089724;27;45550;-74
2021/09/30 13:22:52;;;;;;;;;0.67;0.67;;;;;;;;5074740;27;46946;-73
2021/09/30 13:25:18;;;;;;;;;0.00;0.00;;;;;;;;5079793;27;45466;-73
2021/09/30 13:27:44;;;;;;;;;0.00;0.00;;;;;;;;5077646;27;45477;-73
2021/09/30 13:30:11;;;;;;;;;1.00;0.00;;;;;;;;5077636;27;45697;-72
2021/09/30 13:32:37;;;;;;;;;1.00;1.00;;;;;;;;5075885;27;46517;-73
2021/09/30 13:35:03;;;;;;;;;2.00;2.00;;;;;;;;5071301;27;45404;-73
2021/09/30 13:37:28;;;;;;;;;0.67;0.00;;;;;;;;5079340;27;45348;-73
2021/09/30 13:39:56;;;;;;;;;0.33;0.00;;;;;;;;5077426;27;45511;-72
2021/09/30 13:42:26;;;;;;;;;4.67;2.67;;;;;;;;5076147;27;47165;-72
2021/09/30 13:44:51;;;;;;;;;0.67;0.00;;;;;;;;5077096;27;45416;-73
2021/09/30 13:47:17;;;;;;;;;1.00;0.67;;;;;;;;5074387;27;45482;-75
2021/09/30 13:49:42;;;;;;;;;2.00;1.00;;;;;;;;5076728;27;45394;-72
2021/09/30 13:52:07;;;;;;;;;2.00;1.00;;;;;;;;5076408;27;47015;-74
2021/09/30 13:54:32;;;;;;;;;0.00;0.00;;;;;;;;5076236;27;45224;-76
2021/09/30 13:56:58;;;;;;;;;1.67;1.00;;;;;;;;5058069;27;45479;-76
2021/09/30 13:59:23;;;;;;;;;0.00;0.00;;;;;;;;5074640;27;45554;-74
2021/09/30 14:01:48;;;;;;;;;4.33;3.33;;;;;;;;5074852;27;46143;-73
2021/09/30 14:04:13;;;;;;;;;3.33;2.00;;;;;;;;5078821;27;45280;-73
2021/09/30 14:06:38;;;;;;;;;0.67;0.00;;;;;;;;5076496;27;45408;-77
2021/09/30 14:09:04;;;;;;;;;0.00;0.00;;;;;;;;5076641;27;45334;-74
2021/09/30 14:11:29;;;;;;;;;1.00;1.00;;;;;;;;5073804;27;46927;-78
2021/09/30 14:13:55;;;;;;;;;2.00;0.33;;;;;;;;5072810;27;45438;-73
2021/09/30 14:16:21;;;;;;;;;1.00;0.00;;;;;;;;5076515;27;45376;-74
2021/09/30 14:18:46;;;;;;;;;0.00;0.00;;;;;;;;5076612;27;46465;-73
2021/09/30 14:21:11;;;;;;;;;1.00;1.00;;;;;;;;5076044;27;46029;-73
2021/09/30 14:23:37;;;;;;;;;2.00;0.00;;;;;;;;5076540;27;45428;-73
2021/09/30 14:26:02;;;;;;;;;0.00;0.00;;;;;;;;5072362;27;45418;-73
2021/09/30 14:28:28;;;;;;;;;0.00;0.00;;;;;;;;5078322;27;45505;-72
2021/09/30 14:30:56;;;;;;;;;1.00;0.00;;;;;;;;5076693;27;46106;-69
2021/09/30 14:33:22;;;;;;;;;0.00;0.00;;;;;;;;5076522;27;45357;-73
2021/09/30 14:35:47;;;;;;;;;1.33;0.00;;;;;;;;5057958;27;45432;-71
2021/09/30 14:38:12;;;;;;;;;3.00;1.33;;;;;;;;5073813;27;45585;-71
2021/09/30 14:40:38;;;;;;;;;1.00;1.00;;;;;;;;5076892;27;45271;-70
2021/09/30 14:43:04;;;;;;;;;1.00;1.00;;;;;;;;5075559;27;45459;-75
2021/09/30 14:45:29;;;;;;;;;2.00;1.00;;;;;;;;5076814;27;45796;-77
2021/09/30 14:47:54;;;;;;;;;1.00;1.00;;;;;;;;5077092;27;45324;-78
2021/09/30 14:50:19;;;;;;;;;0.67;0.00;;;;;;;;5072908;27;45361;-70
2021/09/30 14:52:45;;;;;;;;;0.67;0.67;;;;;;;;5075638;27;45378;-71
2021/09/30 14:55:10;;;;;;;;;0.00;0.00;;;;;;;;5075695;27;45553;-70
2021/09/30 14:57:35;;;;;;;;;0.00;0.00;;;;;;;;5076480;27;45546;-72
2021/09/30 15:00:01;;;;;;;;;2.67;0.00;;;;;;;;5075901;27;46347;-72
2021/09/30 15:02:27;;;;;;;;;0.00;0.00;;;;;;;;5073965;27;45346;-72
2021/09/30 15:04:52;;;;;;;;;1.00;0.00;;;;;;;;5075010;27;45481;-69
2021/09/30 15:07:21;;;;;;;;;0.00;0.00;;;;;;;;5081373;27;45505;-71
2021/09/30 15:09:46;;;;;;;;;1.00;0.00;;;;;;;;5078643;27;47080;-69
2021/09/30 15:12:12;;;;;;;;;2.00;1.00;;;;;;;;5060105;28;46175;-71
2021/09/30 15:14:38;;;;;;;;;1.00;1.00;;;;;;;;5079072;27;45476;-70
2021/09/30 15:17:11;;;;;;;;;0.00;0.00;;;;;;;;5074403;27;45514;-70
2021/09/30 15:19:49;;;;;;;;;1.00;0.00;;;;;;;;5092637;27;47198;-71
2021/09/30 15:22:14;;;;;;;;;0.00;0.00;;;;;;;;5079406;27;45307;-71
2021/09/30 15:24:39;;;;;;;;;3.00;0.00;;;;;;;;5080359;27;45261;-71
2021/09/30 15:27:05;;;;;;;;;0.00;0.00;;;;;;;;5079378;27;45390;-70
2021/09/30 15:29:30;;;;;;;;;1.00;1.00;;;;;;;;5077432;27;45498;-70
2021/09/30 15:31:55;;;;;;;;;1.67;0.67;;;;;;;;5076024;27;45412;-71
2021/09/30 15:34:21;;;;;;;;;0.00;0.00;;;;;;;;5079401;27;45317;-69
2021/09/30 15:36:46;;;;;;;;;1.00;1.00;;;;;;;;5059821;28;45439;-70
2021/09/30 15:39:11;;;;;;;;;2.33;1.67;;;;;;;;5078388;27;45423;-70
2021/09/30 15:41:37;;;;;;;;;0.00;0.00;;;;;;;;5078407;27;45726;-70
2021/09/30 15:44:03;;;;;;;;;0.00;0.00;;;;;;;;5074749;27;45377;-70
2021/09/30 15:46:29;;;;;;;;;0.00;0.00;;;;;;;;5080748;27;45482;-70
2021/09/30 15:48:54;;;;;;;;;0.00;0.00;;;;;;;;5078393;27;47058;-69
2021/09/30 15:51:19;;;;;;;;;1.00;1.00;;;;;;;;5078754;27;45383;-71
2021/09/30 15:53:45;;;;;;;;;1.00;0.00;;;;;;;;5078502;27;45271;-71
2021/09/30 15:56:11;;;;;;;;;0.00;0.00;;;;;;;;5074289;27;45496;-70
2021/09/30 15:58:36;;;;;;;;;0.33;0.00;;;;;;;;5079626;27;46628;-71
2021/09/30 16:01:02;;;;;;;;;0.67;0.67;;;;;;;;5078575;27;45320;-71
2021/09/30 16:03:27;;;;;;;;;0.00;0.00;;;;;;;;5078394;27;45454;-70
2021/09/30 16:05:52;;;;;;;;;0.00;0.00;;;;;;;;5077660;27;45483;-70
2021/09/30 16:08:19;;;;;;;;;0.00;0.00;;;;;;;;5073711;27;45385;-71
2021/09/30 16:10:44;;;;;;;;;1.00;1.00;;;;;;;;5077640;27;45453;-71
2021/09/30 16:13:09;;;;;;;;;2.00;1.00;;;;;;;;5077509;27;45637;-70
2021/09/30 16:15:36;;;;;;;;;0.00;0.00;;;;;;;;5077188;27;45388;-70
2021/09/30 16:18:01;;;;;;;;;1.00;0.00;;;;;;;;5077508;27;47254;-71
2021/09/30 16:20:26;;;;;;;;;0.00;0.00;;;;;;;;5075911;27;47447;-70
2021/09/30 16:22:53;;;;;;;;;1.00;1.00;;;;;;;;5075049;27;45307;-71
2021/09/30 16:25:19;;;;;;;;;4.00;1.00;;;;;;;;5079818;27;45416;-70
2021/09/30 16:27:44;;;;;;;;;5.75;3.00;;;;;;;;5077641;27;45587;-70
2021/09/30 16:30:10;;;;;;;;;0.67;0.67;;;;;;;;5078030;27;45392;-69
2021/09/30 16:32:36;;;;;;;;;1.00;1.00;;;;;;;;5077586;27;45353;-70
2021/09/30 16:35:01;;;;;;;;;2.00;0.00;;;;;;;;5055641;28;45696;-70
2021/09/30 16:37:26;;;;;;;;;0.00;0.00;;;;;;;;5079201;27;46191;-71
2021/09/30 16:39:51;;;;;;;;;1.25;1.00;;;;;;;;5077569;27;45479;-70
2021/09/30 16:42:17;;;;;;;;;1.25;1.25;;;;;;;;5077781;27;45889;-69
2021/09/30 16:44:42;;;;;;;;;5.50;0.25;;;;;;;;5077737;27;45459;-69
2021/09/30 16:47:07;;;;;;;;;3.00;1.75;;;;;;;;5071449;27;45606;-70
2021/09/30 16:49:32;;;;;;;;;0.75;0.75;;;;;;;;5079158;27;45329;-70
2021/09/30 16:51:58;;;;;;;;;3.00;2.50;;;;;;;;5075377;27;47162;-69
2021/09/30 16:54:24;;;;;;;;;2.00;2.00;;;;;;;;5077342;27;45439;-71
2021/09/30 16:56:49;;;;;;;;;2.75;0.75;;;;;;;;5077324;27;46093;-71
2021/09/30 16:59:14;;;;;;;;;4.50;3.50;;;;;;;;5073755;27;45347;-71
2021/09/30 17:01:43;;;;;;;;;8.50;8.50;;;;;;;;5077903;27;45318;-71
2021/09/30 17:04:13;;;;;;;;;8.50;8.50;;;;;;;;5077927;27;45503;-71
2021/09/30 17:06:38;;;;;;;;;14.75;13.50;;;;;;;;5076039;27;47213;-70
2021/09/30 17:09:04;;;;;;;;;22.25;17.25;;;;;;;;5076372;27;45407;-70
2021/09/30 17:11:30;;;;;;;;;10.25;10.25;;;;;;;;5076173;27;45354;-71
2021/09/30 17:13:55;;;;;;;;;4.50;4.25;;;;;;;;5074300;27;45350;-74
2021/09/30 17:16:21;;;;;;;;;3.00;3.00;;;;;;;;5079497;27;45340;-73
2021/09/30 17:18:46;;;;;;;;;2.00;2.00;;;;;;;;5077389;27;45310;-75
2021/09/30 17:21:12;;;;;;;;;15.75;13.75;;;;;;;;5077195;27;45453;-74
2021/09/30 17:23:37;;;;;;;;;1.00;1.00;;;;;;;;5077210;27;45349;-73
2021/09/30 17:26:04;;;;;;;;;7.50;5.75;;;;;;;;5072359;27;46239;-74
2021/09/30 17:28:29;;;;;;;;;4.25;4.25;;;;;;;;5077394;27;45330;-74
2021/09/30 17:30:55;;;;;;;;;3.50;3.50;;;;;;;;5075468;27;45305;-74
2021/09/30 17:33:20;;;;;;;;;4.50;3.75;;;;;;;;5077380;27;45367;-74